KHSV/HSV METAR and TAF weather

Enter ICAO airport designator
Station Type Date Time Source
KHSV METAR 2019/02/20 17:23 UTC NOAA

KHSV 201723Z 29009G19KT 8SM -RA OVC008 11/10 A3001 RMK AO2 PK WND 16026/1708 LTG DSNT W-NE TSE22 PRESRR CB DSNT NW-NE P0002 T01060100 $


Station Type Date Time Source
KHSV Decoded METAR 2019/02/20 17:23 UTC NOAA

HUNTSVILLE INTERNATIONAL JONES FIELD, AL, United States (KHSV) 34-39N 086-47W 191M
Feb 20, 2019 - 12:23 PM EST / 2019.02.20 1723 UTC
Wind: from the WNW (290 degrees) at 10 MPH (9 KT) gusting to 22 MPH (19 KT):0
Visibility: 8 mile(s):0
Sky conditions: overcast
Weather: light rain; Cumulonimbus clouds, lightning observed
Precipitation last hour: 0.02 inches
Temperature: 51.1 F (10.6 C)
Dew Point: 50.0 F (10.0 C)
Relative Humidity: 96%
Pressure (altimeter): 30.01 in. Hg (1016 hPa)
Pressure tendency: rising rapidly
ob: KHSV 201723Z 29009G19KT 8SM -RA OVC008 11/10 A3001 RMK AO2 PK WND 16026/1708 LTG DSNT W-NE TSE22 PRESRR CB DSNT NW-NE P0002 T01060100
cycle: 17

Station Type Date Time Source
KHSV TAF 2019/02/20 18:22 UTC NOAA

TAF KHSV 201720Z 2018/2118 14015KT P6SM -RA OVC010
TEMPO 2018/2019 1SM +TSRA OVC007CB
FM201900 18020G30KT 6SM -SHRA OVC007
TEMPO 2019/2021 3SM SHRA OVC005
FM210100 24012G20KT P6SM OVC012
FM210600 34008KT P6SM OVC015
FM211000 35007KT P6SM OVC040


Example: see airport list